sensor_id;sensor_type;location;lat;lon;timestamp;P1;durP1;ratioP1;P2;durP2;ratioP2
21554;SDS011;10938;44.794;-0.676;2023-04-24T00:00:23;10.73;;;2.47;;
21554;SDS011;10938;44.794;-0.676;2023-04-24T00:02:49;15.60;;;2.80;;
21554;SDS011;10938;44.794;-0.676;2023-04-24T00:05:15;14.50;;;3.03;;
21554;SDS011;10938;44.794;-0.676;2023-04-24T00:07:42;10.65;;;2.63;;
21554;SDS011;10938;44.794;-0.676;2023-04-24T00:10:07;13.23;;;2.92;;
21554;SDS011;10938;44.794;-0.676;2023-04-24T00:12:33;12.23;;;2.67;;
21554;SDS011;10938;44.794;-0.676;2023-04-24T00:14:59;9.88;;;2.85;;
21554;SDS011;10938;44.794;-0.676;2023-04-24T00:17:24;10.95;;;2.63;;
21554;SDS011;10938;44.794;-0.676;2023-04-24T00:19:49;10.80;;;2.43;;
21554;SDS011;10938;44.794;-0.676;2023-04-24T00:22:23;9.82;;;2.92;;
21554;SDS011;10938;44.794;-0.676;2023-04-24T00:24:49;16.83;;;3.33;;
21554;SDS011;10938;44.794;-0.676;2023-04-24T00:27:14;15.85;;;3.35;;
21554;SDS011;10938;44.794;-0.676;2023-04-24T00:29:39;11.93;;;2.38;;
21554;SDS011;10938;44.794;-0.676;2023-04-24T00:32:04;12.57;;;2.40;;
21554;SDS011;10938;44.794;-0.676;2023-04-24T00:34:30;16.77;;;3.97;;
21554;SDS011;10938;44.794;-0.676;2023-04-24T00:36:57;11.23;;;2.72;;
21554;SDS011;10938;44.794;-0.676;2023-04-24T00:39:22;9.70;;;2.17;;
21554;SDS011;10938;44.794;-0.676;2023-04-24T00:41:48;11.60;;;2.03;;
21554;SDS011;10938;44.794;-0.676;2023-04-24T00:44:13;10.13;;;2.00;;
21554;SDS011;10938;44.794;-0.676;2023-04-24T00:46:39;12.18;;;2.72;;
21554;SDS011;10938;44.794;-0.676;2023-04-24T00:49:04;15.02;;;3.13;;
21554;SDS011;10938;44.794;-0.676;2023-04-24T00:51:34;11.40;;;2.83;;
21554;SDS011;10938;44.794;-0.676;2023-04-24T00:54:00;11.25;;;2.58;;
21554;SDS011;10938;44.794;-0.676;2023-04-24T00:56:25;13.55;;;2.38;;
21554;SDS011;10938;44.794;-0.676;2023-04-24T00:58:50;11.48;;;2.80;;
21554;SDS011;10938;44.794;-0.676;2023-04-24T01:01:16;17.38;;;2.83;;
21554;SDS011;10938;44.794;-0.676;2023-04-24T01:03:43;11.77;;;2.60;;
21554;SDS011;10938;44.794;-0.676;2023-04-24T01:06:08;13.32;;;2.67;;
21554;SDS011;10938;44.794;-0.676;2023-04-24T01:08:34;10.63;;;2.45;;
21554;SDS011;10938;44.794;-0.676;2023-04-24T01:10:59;12.20;;;2.40;;
21554;SDS011;10938;44.794;-0.676;2023-04-24T01:13:27;11.98;;;2.42;;
21554;SDS011;10938;44.794;-0.676;2023-04-24T01:15:52;11.88;;;2.40;;
21554;SDS011;10938;44.794;-0.676;2023-04-24T01:18:17;11.50;;;2.60;;
21554;SDS011;10938;44.794;-0.676;2023-04-24T01:20:43;13.23;;;3.00;;
21554;SDS011;10938;44.794;-0.676;2023-04-24T01:23:10;12.43;;;2.78;;
21554;SDS011;10938;44.794;-0.676;2023-04-24T01:25:36;11.57;;;2.25;;
21554;SDS011;10938;44.794;-0.676;2023-04-24T01:28:02;9.80;;;2.25;;
21554;SDS011;10938;44.794;-0.676;2023-04-24T01:30:28;11.35;;;2.28;;
21554;SDS011;10938;44.794;-0.676;2023-04-24T01:32:53;10.40;;;2.90;;
21554;SDS011;10938;44.794;-0.676;2023-04-24T01:35:19;12.40;;;2.30;;
21554;SDS011;10938;44.794;-0.676;2023-04-24T01:37:45;15.20;;;2.88;;
21554;SDS011;10938;44.794;-0.676;2023-04-24T01:40:10;8.82;;;2.08;;
21554;SDS011;10938;44.794;-0.676;2023-04-24T01:42:35;12.98;;;2.13;;
21554;SDS011;10938;44.794;-0.676;2023-04-24T01:45:02;14.77;;;2.50;;
21554;SDS011;10938;44.794;-0.676;2023-04-24T01:47:28;13.02;;;2.88;;
21554;SDS011;10938;44.794;-0.676;2023-04-24T01:49:54;7.57;;;2.20;;
21554;SDS011;10938;44.794;-0.676;2023-04-24T01:52:20;10.43;;;2.60;;
21554;SDS011;10938;44.794;-0.676;2023-04-24T01:54:45;8.25;;;2.75;;
21554;SDS011;10938;44.794;-0.676;2023-04-24T01:57:10;14.07;;;2.60;;
21554;SDS011;10938;44.794;-0.676;2023-04-24T01:59:36;8.63;;;2.25;;
21554;SDS011;10938;44.794;-0.676;2023-04-24T02:02:04;11.80;;;2.38;;
21554;SDS011;10938;44.794;-0.676;2023-04-24T02:04:30;8.70;;;2.08;;
21554;SDS011;10938;44.794;-0.676;2023-04-24T02:06:55;14.50;;;2.75;;
21554;SDS011;10938;44.794;-0.676;2023-04-24T02:09:23;8.63;;;2.20;;
21554;SDS011;10938;44.794;-0.676;2023-04-24T02:11:49;8.45;;;2.03;;
21554;SDS011;10938;44.794;-0.676;2023-04-24T02:14:14;11.67;;;3.03;;
21554;SDS011;10938;44.794;-0.676;2023-04-24T02:16:39;10.63;;;2.30;;
21554;SDS011;10938;44.794;-0.676;2023-04-24T02:19:05;12.73;;;2.97;;
21554;SDS011;10938;44.794;-0.676;2023-04-24T02:21:30;7.60;;;2.35;;
21554;SDS011;10938;44.794;-0.676;2023-04-24T02:23:57;6.75;;;2.40;;
21554;SDS011;10938;44.794;-0.676;2023-04-24T02:26:22;10.05;;;2.40;;
21554;SDS011;10938;44.794;-0.676;2023-04-24T02:28:48;7.85;;;2.22;;
21554;SDS011;10938;44.794;-0.676;2023-04-24T02:31:13;7.38;;;2.65;;
21554;SDS011;10938;44.794;-0.676;2023-04-24T02:33:39;7.75;;;2.72;;
21554;SDS011;10938;44.794;-0.676;2023-04-24T02:36:04;9.25;;;2.10;;
21554;SDS011;10938;44.794;-0.676;2023-04-24T02:38:29;7.85;;;1.80;;
21554;SDS011;10938;44.794;-0.676;2023-04-24T02:40:54;11.33;;;2.60;;
21554;SDS011;10938;44.794;-0.676;2023-04-24T02:43:20;6.05;;;2.00;;
21554;SDS011;10938;44.794;-0.676;2023-04-24T02:45:45;10.73;;;3.13;;
21554;SDS011;10938;44.794;-0.676;2023-04-24T02:48:10;9.05;;;2.10;;
21554;SDS011;10938;44.794;-0.676;2023-04-24T02:50:36;10.25;;;2.28;;
21554;SDS011;10938;44.794;-0.676;2023-04-24T02:53:01;7.23;;;2.30;;
21554;SDS011;10938;44.794;-0.676;2023-04-24T02:55:26;10.55;;;2.60;;
21554;SDS011;10938;44.794;-0.676;2023-04-24T02:57:52;9.80;;;2.28;;
21554;SDS011;10938;44.794;-0.676;2023-04-24T03:00:17;7.73;;;2.77;;
21554;SDS011;10938;44.794;-0.676;2023-04-24T03:02:42;5.70;;;2.17;;
21554;SDS011;10938;44.794;-0.676;2023-04-24T03:05:07;10.15;;;2.83;;
21554;SDS011;10938;44.794;-0.676;2023-04-24T03:07:34;5.57;;;2.20;;
21554;SDS011;10938;44.794;-0.676;2023-04-24T03:09:59;10.52;;;2.83;;
21554;SDS011;10938;44.794;-0.676;2023-04-24T03:12:24;7.63;;;2.00;;
21554;SDS011;10938;44.794;-0.676;2023-04-24T03:14:50;5.55;;;2.47;;
21554;SDS011;10938;44.794;-0.676;2023-04-24T03:17:15;3.63;;;1.85;;
21554;SDS011;10938;44.794;-0.676;2023-04-24T03:19:40;6.47;;;2.20;;
21554;SDS011;10938;44.794;-0.676;2023-04-24T03:22:06;9.77;;;2.50;;
21554;SDS011;10938;44.794;-0.676;2023-04-24T03:24:31;7.25;;;2.78;;
21554;SDS011;10938;44.794;-0.676;2023-04-24T03:26:57;5.43;;;2.38;;
21554;SDS011;10938;44.794;-0.676;2023-04-24T03:29:22;6.32;;;2.40;;
21554;SDS011;10938;44.794;-0.676;2023-04-24T03:31:48;8.50;;;2.43;;
21554;SDS011;10938;44.794;-0.676;2023-04-24T03:34:13;7.93;;;2.38;;
21554;SDS011;10938;44.794;-0.676;2023-04-24T03:36:39;8.90;;;2.47;;
21554;SDS011;10938;44.794;-0.676;2023-04-24T03:39:04;8.38;;;2.35;;
21554;SDS011;10938;44.794;-0.676;2023-04-24T03:41:29;4.53;;;1.93;;
21554;SDS011;10938;44.794;-0.676;2023-04-24T03:43:55;9.95;;;2.75;;
21554;SDS011;10938;44.794;-0.676;2023-04-24T03:46:20;8.57;;;2.60;;
21554;SDS011;10938;44.794;-0.676;2023-04-24T03:48:46;5.53;;;2.15;;
21554;SDS011;10938;44.794;-0.676;2023-04-24T03:51:11;6.63;;;2.60;;
21554;SDS011;10938;44.794;-0.676;2023-04-24T03:53:36;6.93;;;2.10;;
21554;SDS011;10938;44.794;-0.676;2023-04-24T03:56:01;5.15;;;2.63;;
21554;SDS011;10938;44.794;-0.676;2023-04-24T03:58:27;4.68;;;2.25;;
21554;SDS011;10938;44.794;-0.676;2023-04-24T04:00:52;6.55;;;2.13;;
21554;SDS011;10938;44.794;-0.676;2023-04-24T04:03:17;5.90;;;2.93;;
21554;SDS011;10938;44.794;-0.676;2023-04-24T04:05:43;5.57;;;2.45;;
21554;SDS011;10938;44.794;-0.676;2023-04-24T04:08:08;8.40;;;2.80;;
21554;SDS011;10938;44.794;-0.676;2023-04-24T04:10:33;7.87;;;2.50;;
21554;SDS011;10938;44.794;-0.676;2023-04-24T04:12:59;8.13;;;2.40;;
21554;SDS011;10938;44.794;-0.676;2023-04-24T04:15:25;9.35;;;2.75;;
21554;SDS011;10938;44.794;-0.676;2023-04-24T04:17:50;5.88;;;2.53;;
21554;SDS011;10938;44.794;-0.676;2023-04-24T04:20:15;11.38;;;3.00;;
21554;SDS011;10938;44.794;-0.676;2023-04-24T04:22:41;4.97;;;2.78;;
21554;SDS011;10938;44.794;-0.676;2023-04-24T04:25:06;5.55;;;2.63;;
21554;SDS011;10938;44.794;-0.676;2023-04-24T04:27:32;5.05;;;2.60;;
21554;SDS011;10938;44.794;-0.676;2023-04-24T04:29:58;5.07;;;2.78;;
21554;SDS011;10938;44.794;-0.676;2023-04-24T04:32:26;6.78;;;2.90;;
21554;SDS011;10938;44.794;-0.676;2023-04-24T04:34:51;8.00;;;3.00;;
21554;SDS011;10938;44.794;-0.676;2023-04-24T04:37:18;7.97;;;3.25;;
21554;SDS011;10938;44.794;-0.676;2023-04-24T04:39:43;6.65;;;2.95;;
21554;SDS011;10938;44.794;-0.676;2023-04-24T04:42:09;6.95;;;2.55;;
21554;SDS011;10938;44.794;-0.676;2023-04-24T04:44:34;4.63;;;2.60;;
21554;SDS011;10938;44.794;-0.676;2023-04-24T04:47:01;9.18;;;2.90;;
21554;SDS011;10938;44.794;-0.676;2023-04-24T04:49:30;6.45;;;3.25;;
21554;SDS011;10938;44.794;-0.676;2023-04-24T04:51:56;7.25;;;3.15;;
21554;SDS011;10938;44.794;-0.676;2023-04-24T04:54:21;7.65;;;2.95;;
21554;SDS011;10938;44.794;-0.676;2023-04-24T04:56:46;6.97;;;2.70;;
21554;SDS011;10938;44.794;-0.676;2023-04-24T04:59:12;8.60;;;2.67;;
21554;SDS011;10938;44.794;-0.676;2023-04-24T05:01:37;6.45;;;2.72;;
21554;SDS011;10938;44.794;-0.676;2023-04-24T05:04:05;7.88;;;3.35;;
21554;SDS011;10938;44.794;-0.676;2023-04-24T05:06:31;8.52;;;3.15;;
21554;SDS011;10938;44.794;-0.676;2023-04-24T05:08:56;7.27;;;3.00;;
21554;SDS011;10938;44.794;-0.676;2023-04-24T05:11:22;7.55;;;3.35;;
21554;SDS011;10938;44.794;-0.676;2023-04-24T05:13:47;9.88;;;2.95;;
21554;SDS011;10938;44.794;-0.676;2023-04-24T05:16:13;5.47;;;3.45;;
21554;SDS011;10938;44.794;-0.676;2023-04-24T05:18:38;11.20;;;3.77;;
21554;SDS011;10938;44.794;-0.676;2023-04-24T05:21:03;7.43;;;3.50;;
21554;SDS011;10938;44.794;-0.676;2023-04-24T05:23:29;7.50;;;3.67;;
21554;SDS011;10938;44.794;-0.676;2023-04-24T05:25:54;11.23;;;3.75;;
21554;SDS011;10938;44.794;-0.676;2023-04-24T05:28:19;9.35;;;4.30;;
21554;SDS011;10938;44.794;-0.676;2023-04-24T05:30:45;7.60;;;3.20;;
21554;SDS011;10938;44.794;-0.676;2023-04-24T05:33:11;10.07;;;3.63;;
21554;SDS011;10938;44.794;-0.676;2023-04-24T05:35:36;7.95;;;3.28;;
21554;SDS011;10938;44.794;-0.676;2023-04-24T05:38:01;7.18;;;2.72;;
21554;SDS011;10938;44.794;-0.676;2023-04-24T05:40:27;5.83;;;3.00;;
21554;SDS011;10938;44.794;-0.676;2023-04-24T05:42:52;7.88;;;3.35;;
21554;SDS011;10938;44.794;-0.676;2023-04-24T05:45:17;5.53;;;2.97;;
21554;SDS011;10938;44.794;-0.676;2023-04-24T05:47:43;7.65;;;2.67;;
21554;SDS011;10938;44.794;-0.676;2023-04-24T05:50:09;7.55;;;2.97;;
21554;SDS011;10938;44.794;-0.676;2023-04-24T05:52:34;7.03;;;2.60;;
21554;SDS011;10938;44.794;-0.676;2023-04-24T05:55:00;7.53;;;3.20;;
21554;SDS011;10938;44.794;-0.676;2023-04-24T05:57:25;8.05;;;3.20;;
21554;SDS011;10938;44.794;-0.676;2023-04-24T05:59:51;7.47;;;3.17;;
21554;SDS011;10938;44.794;-0.676;2023-04-24T06:02:16;6.45;;;3.40;;
21554;SDS011;10938;44.794;-0.676;2023-04-24T06:04:42;7.50;;;2.80;;
21554;SDS011;10938;44.794;-0.676;2023-04-24T06:07:12;6.38;;;3.40;;
21554;SDS011;10938;44.794;-0.676;2023-04-24T06:09:38;8.98;;;3.05;;
21554;SDS011;10938;44.794;-0.676;2023-04-24T06:12:03;6.47;;;3.42;;
21554;SDS011;10938;44.794;-0.676;2023-04-24T06:14:29;5.55;;;3.40;;
21554;SDS011;10938;44.794;-0.676;2023-04-24T06:16:54;7.10;;;3.43;;
21554;SDS011;10938;44.794;-0.676;2023-04-24T06:19:19;8.85;;;3.42;;
21554;SDS011;10938;44.794;-0.676;2023-04-24T06:21:45;10.18;;;3.53;;
21554;SDS011;10938;44.794;-0.676;2023-04-24T06:24:10;13.25;;;4.40;;
21554;SDS011;10938;44.794;-0.676;2023-04-24T06:26:36;8.70;;;2.90;;
21554;SDS011;10938;44.794;-0.676;2023-04-24T06:29:02;5.70;;;2.90;;
21554;SDS011;10938;44.794;-0.676;2023-04-24T06:31:27;8.85;;;3.50;;
21554;SDS011;10938;44.794;-0.676;2023-04-24T06:33:52;6.10;;;3.10;;
21554;SDS011;10938;44.794;-0.676;2023-04-24T06:36:17;6.37;;;3.23;;
21554;SDS011;10938;44.794;-0.676;2023-04-24T06:38:43;11.13;;;3.63;;
21554;SDS011;10938;44.794;-0.676;2023-04-24T06:41:09;9.73;;;3.50;;
21554;SDS011;10938;44.794;-0.676;2023-04-24T06:43:34;6.47;;;2.92;;
21554;SDS011;10938;44.794;-0.676;2023-04-24T06:46:00;10.80;;;3.27;;
21554;SDS011;10938;44.794;-0.676;2023-04-24T06:48:25;5.60;;;2.50;;
21554;SDS011;10938;44.794;-0.676;2023-04-24T06:50:51;6.82;;;2.92;;
21554;SDS011;10938;44.794;-0.676;2023-04-24T06:53:16;7.25;;;3.35;;
21554;SDS011;10938;44.794;-0.676;2023-04-24T06:55:42;7.03;;;2.97;;
21554;SDS011;10938;44.794;-0.676;2023-04-24T06:58:08;10.02;;;3.53;;
21554;SDS011;10938;44.794;-0.676;2023-04-24T07:00:34;7.32;;;3.22;;
21554;SDS011;10938;44.794;-0.676;2023-04-24T07:02:59;11.90;;;3.30;;
21554;SDS011;10938;44.794;-0.676;2023-04-24T07:05:27;8.57;;;3.33;;
21554;SDS011;10938;44.794;-0.676;2023-04-24T07:07:53;8.98;;;2.97;;
21554;SDS011;10938;44.794;-0.676;2023-04-24T07:10:18;5.85;;;2.88;;
21554;SDS011;10938;44.794;-0.676;2023-04-24T07:12:45;10.20;;;2.83;;
21554;SDS011;10938;44.794;-0.676;2023-04-24T07:15:11;9.48;;;2.95;;
21554;SDS011;10938;44.794;-0.676;2023-04-24T07:17:37;8.73;;;3.10;;
21554;SDS011;10938;44.794;-0.676;2023-04-24T07:20:07;10.18;;;3.20;;
21554;SDS011;10938;44.794;-0.676;2023-04-24T07:22:34;9.15;;;3.20;;
21554;SDS011;10938;44.794;-0.676;2023-04-24T07:24:59;9.17;;;3.10;;
21554;SDS011;10938;44.794;-0.676;2023-04-24T07:27:28;7.88;;;2.55;;
21554;SDS011;10938;44.794;-0.676;2023-04-24T07:29:53;7.78;;;3.28;;
21554;SDS011;10938;44.794;-0.676;2023-04-24T07:32:21;6.88;;;2.80;;
21554;SDS011;10938;44.794;-0.676;2023-04-24T07:34:46;8.67;;;2.30;;
21554;SDS011;10938;44.794;-0.676;2023-04-24T07:37:12;10.80;;;2.60;;
21554;SDS011;10938;44.794;-0.676;2023-04-24T07:39:37;8.47;;;2.50;;
21554;SDS011;10938;44.794;-0.676;2023-04-24T07:42:02;8.87;;;2.87;;
21554;SDS011;10938;44.794;-0.676;2023-04-24T07:44:28;9.75;;;2.65;;
21554;SDS011;10938;44.794;-0.676;2023-04-24T07:46:54;8.10;;;2.40;;
21554;SDS011;10938;44.794;-0.676;2023-04-24T07:49:20;9.52;;;2.45;;
21554;SDS011;10938;44.794;-0.676;2023-04-24T07:51:45;7.95;;;2.25;;
21554;SDS011;10938;44.794;-0.676;2023-04-24T07:54:11;7.35;;;2.50;;
21554;SDS011;10938;44.794;-0.676;2023-04-24T07:56:36;8.98;;;2.58;;
21554;SDS011;10938;44.794;-0.676;2023-04-24T07:59:04;9.95;;;2.50;;
21554;SDS011;10938;44.794;-0.676;2023-04-24T08:01:29;8.65;;;2.63;;
21554;SDS011;10938;44.794;-0.676;2023-04-24T08:03:54;4.90;;;2.33;;
21554;SDS011;10938;44.794;-0.676;2023-04-24T08:06:20;7.38;;;2.20;;
21554;SDS011;10938;44.794;-0.676;2023-04-24T08:08:45;10.47;;;2.53;;
21554;SDS011;10938;44.794;-0.676;2023-04-24T08:11:11;8.20;;;2.60;;
21554;SDS011;10938;44.794;-0.676;2023-04-24T08:13:36;3.80;;;1.80;;
21554;SDS011;10938;44.794;-0.676;2023-04-24T08:16:02;8.27;;;2.42;;
21554;SDS011;10938;44.794;-0.676;2023-04-24T08:18:27;6.47;;;2.43;;
21554;SDS011;10938;44.794;-0.676;2023-04-24T08:20:52;6.43;;;2.70;;
21554;SDS011;10938;44.794;-0.676;2023-04-24T08:23:17;9.10;;;2.80;;
21554;SDS011;10938;44.794;-0.676;2023-04-24T08:25:43;9.02;;;2.45;;
21554;SDS011;10938;44.794;-0.676;2023-04-24T08:28:08;4.07;;;1.90;;
21554;SDS011;10938;44.794;-0.676;2023-04-24T08:30:34;5.57;;;2.10;;
21554;SDS011;10938;44.794;-0.676;2023-04-24T08:32:59;9.15;;;2.42;;
21554;SDS011;10938;44.794;-0.676;2023-04-24T08:35:25;7.20;;;2.40;;
21554;SDS011;10938;44.794;-0.676;2023-04-24T08:37:51;6.93;;;2.53;;
21554;SDS011;10938;44.794;-0.676;2023-04-24T08:40:16;4.97;;;2.17;;
21554;SDS011;10938;44.794;-0.676;2023-04-24T08:42:42;6.90;;;2.27;;
21554;SDS011;10938;44.794;-0.676;2023-04-24T08:45:12;7.03;;;2.55;;
21554;SDS011;10938;44.794;-0.676;2023-04-24T08:47:38;7.38;;;2.55;;
21554;SDS011;10938;44.794;-0.676;2023-04-24T08:50:04;11.98;;;2.20;;
21554;SDS011;10938;44.794;-0.676;2023-04-24T08:52:32;9.63;;;2.28;;
21554;SDS011;10938;44.794;-0.676;2023-04-24T08:54:57;6.38;;;2.15;;
21554;SDS011;10938;44.794;-0.676;2023-04-24T08:57:23;7.03;;;2.08;;
21554;SDS011;10938;44.794;-0.676;2023-04-24T08:59:49;4.50;;;2.00;;
21554;SDS011;10938;44.794;-0.676;2023-04-24T09:02:15;5.90;;;2.10;;
21554;SDS011;10938;44.794;-0.676;2023-04-24T09:04:41;5.35;;;2.20;;
21554;SDS011;10938;44.794;-0.676;2023-04-24T09:07:08;9.38;;;2.15;;
21554;SDS011;10938;44.794;-0.676;2023-04-24T09:09:35;7.03;;;2.45;;
21554;SDS011;10938;44.794;-0.676;2023-04-24T09:12:03;7.15;;;2.20;;
21554;SDS011;10938;44.794;-0.676;2023-04-24T09:14:29;9.63;;;2.25;;
21554;SDS011;10938;44.794;-0.676;2023-04-24T09:16:56;6.32;;;2.05;;
21554;SDS011;10938;44.794;-0.676;2023-04-24T09:19:21;4.23;;;1.67;;
21554;SDS011;10938;44.794;-0.676;2023-04-24T09:21:47;6.72;;;2.45;;
21554;SDS011;10938;44.794;-0.676;2023-04-24T09:24:16;8.95;;;2.40;;
21554;SDS011;10938;44.794;-0.676;2023-04-24T09:26:47;6.30;;;2.35;;
21554;SDS011;10938;44.794;-0.676;2023-04-24T09:29:16;8.80;;;2.03;;
21554;SDS011;10938;44.794;-0.676;2023-04-24T09:31:42;8.85;;;2.42;;
21554;SDS011;10938;44.794;-0.676;2023-04-24T09:34:07;5.80;;;2.28;;
21554;SDS011;10938;44.794;-0.676;2023-04-24T09:36:36;5.15;;;2.40;;
21554;SDS011;10938;44.794;-0.676;2023-04-24T09:39:06;6.43;;;2.03;;
21554;SDS011;10938;44.794;-0.676;2023-04-24T09:41:33;6.85;;;1.95;;
21554;SDS011;10938;44.794;-0.676;2023-04-24T09:44:09;3.03;;;2.00;;
21554;SDS011;10938;44.794;-0.676;2023-04-24T09:46:35;7.80;;;2.10;;
21554;SDS011;10938;44.794;-0.676;2023-04-24T09:49:12;5.15;;;2.08;;
21554;SDS011;10938;44.794;-0.676;2023-04-24T09:51:38;6.15;;;1.95;;
21554;SDS011;10938;44.794;-0.676;2023-04-24T09:54:04;4.78;;;1.95;;
21554;SDS011;10938;44.794;-0.676;2023-04-24T09:56:33;6.88;;;2.25;;
21554;SDS011;10938;44.794;-0.676;2023-04-24T09:59:05;7.00;;;2.22;;
21554;SDS011;10938;44.794;-0.676;2023-04-24T10:01:31;5.75;;;2.25;;
21554;SDS011;10938;44.794;-0.676;2023-04-24T10:03:57;4.55;;;1.70;;
21554;SDS011;10938;44.794;-0.676;2023-04-24T10:06:22;7.50;;;2.50;;
21554;SDS011;10938;44.794;-0.676;2023-04-24T10:08:47;8.20;;;2.60;;
21554;SDS011;10938;44.794;-0.676;2023-04-24T10:11:13;7.85;;;2.30;;
21554;SDS011;10938;44.794;-0.676;2023-04-24T10:13:39;5.78;;;2.00;;
21554;SDS011;10938;44.794;-0.676;2023-04-24T10:16:05;4.57;;;2.20;;
21554;SDS011;10938;44.794;-0.676;2023-04-24T10:18:30;5.30;;;2.00;;
21554;SDS011;10938;44.794;-0.676;2023-04-24T10:20:57;6.80;;;2.55;;
21554;SDS011;10938;44.794;-0.676;2023-04-24T10:23:25;10.80;;;2.40;;
21554;SDS011;10938;44.794;-0.676;2023-04-24T10:25:50;5.97;;;2.13;;
21554;SDS011;10938;44.794;-0.676;2023-04-24T10:28:15;6.30;;;2.45;;
21554;SDS011;10938;44.794;-0.676;2023-04-24T10:30:42;6.68;;;2.67;;
21554;SDS011;10938;44.794;-0.676;2023-04-24T10:33:08;7.25;;;2.40;;
21554;SDS011;10938;44.794;-0.676;2023-04-24T10:35:34;7.25;;;2.50;;
21554;SDS011;10938;44.794;-0.676;2023-04-24T10:38:02;8.95;;;2.97;;
21554;SDS011;10938;44.794;-0.676;2023-04-24T10:40:32;6.63;;;2.60;;
21554;SDS011;10938;44.794;-0.676;2023-04-24T10:42:58;5.65;;;2.55;;
21554;SDS011;10938;44.794;-0.676;2023-04-24T10:45:24;5.88;;;2.28;;
21554;SDS011;10938;44.794;-0.676;2023-04-24T10:48:01;5.55;;;2.22;;
21554;SDS011;10938;44.794;-0.676;2023-04-24T10:50:27;6.43;;;1.95;;
21554;SDS011;10938;44.794;-0.676;2023-04-24T10:52:53;9.63;;;2.72;;
21554;SDS011;10938;44.794;-0.676;2023-04-24T10:58:22;9.82;;;2.50;;
21554;SDS011;10938;44.794;-0.676;2023-04-24T11:01:00;7.15;;;2.47;;
21554;SDS011;10938;44.794;-0.676;2023-04-24T11:03:30;4.10;;;1.80;;
21554;SDS011;10938;44.794;-0.676;2023-04-24T11:05:57;7.88;;;2.50;;
21554;SDS011;10938;44.794;-0.676;2023-04-24T11:08:30;9.30;;;2.75;;
21554;SDS011;10938;44.794;-0.676;2023-04-24T11:13:22;8.60;;;2.58;;
21554;SDS011;10938;44.794;-0.676;2023-04-24T11:16:11;5.97;;;2.00;;
21554;SDS011;10938;44.794;-0.676;2023-04-24T11:18:39;5.10;;;2.15;;
21554;SDS011;10938;44.794;-0.676;2023-04-24T11:21:28;6.97;;;2.85;;
21554;SDS011;10938;44.794;-0.676;2023-04-24T11:23:51;6.18;;;2.55;;
21554;SDS011;10938;44.794;-0.676;2023-04-24T11:26:21;4.90;;;1.90;;
21554;SDS011;10938;44.794;-0.676;2023-04-24T11:28:48;4.47;;;2.00;;
21554;SDS011;10938;44.794;-0.676;2023-04-24T11:33:57;5.25;;;2.70;;
21554;SDS011;10938;44.794;-0.676;2023-04-24T11:36:31;10.50;;;3.33;;
21554;SDS011;10938;44.794;-0.676;2023-04-24T11:38:56;9.48;;;2.38;;
21554;SDS011;10938;44.794;-0.676;2023-04-24T11:41:22;6.07;;;2.00;;
21554;SDS011;10938;44.794;-0.676;2023-04-24T11:43:47;6.25;;;2.00;;
21554;SDS011;10938;44.794;-0.676;2023-04-24T11:46:16;7.15;;;2.10;;
21554;SDS011;10938;44.794;-0.676;2023-04-24T11:48:44;5.03;;;2.00;;
21554;SDS011;10938;44.794;-0.676;2023-04-24T11:51:11;5.35;;;2.28;;
21554;SDS011;10938;44.794;-0.676;2023-04-24T11:53:37;7.88;;;2.60;;
21554;SDS011;10938;44.794;-0.676;2023-04-24T11:56:03;4.45;;;1.90;;
21554;SDS011;10938;44.794;-0.676;2023-04-24T11:58:34;4.28;;;1.77;;
21554;SDS011;10938;44.794;-0.676;2023-04-24T12:00:59;5.90;;;1.92;;
21554;SDS011;10938;44.794;-0.676;2023-04-24T12:03:26;3.45;;;1.90;;
21554;SDS011;10938;44.794;-0.676;2023-04-24T12:05:51;4.28;;;1.73;;
21554;SDS011;10938;44.794;-0.676;2023-04-24T12:08:37;5.80;;;1.90;;
21554;SDS011;10938;44.794;-0.676;2023-04-24T12:11:03;3.60;;;1.63;;
21554;SDS011;10938;44.794;-0.676;2023-04-24T12:13:28;3.78;;;1.58;;
21554;SDS011;10938;44.794;-0.676;2023-04-24T12:15:54;3.88;;;1.40;;
21554;SDS011;10938;44.794;-0.676;2023-04-24T12:18:23;6.25;;;1.80;;
21554;SDS011;10938;44.794;-0.676;2023-04-24T12:20:49;4.60;;;2.05;;
21554;SDS011;10938;44.794;-0.676;2023-04-24T12:23:15;6.30;;;2.30;;
21554;SDS011;10938;44.794;-0.676;2023-04-24T12:25:40;3.80;;;1.67;;
21554;SDS011;10938;44.794;-0.676;2023-04-24T12:30:34;5.20;;;1.87;;
21554;SDS011;10938;44.794;-0.676;2023-04-24T12:33:01;4.43;;;1.70;;
21554;SDS011;10938;44.794;-0.676;2023-04-24T12:35:28;2.40;;;1.25;;
21554;SDS011;10938;44.794;-0.676;2023-04-24T12:37:53;3.53;;;1.75;;
21554;SDS011;10938;44.794;-0.676;2023-04-24T12:40:19;5.00;;;1.90;;
21554;SDS011;10938;44.794;-0.676;2023-04-24T12:42:46;7.80;;;1.70;;
21554;SDS011;10938;44.794;-0.676;2023-04-24T12:45:12;3.70;;;1.80;;
21554;SDS011;10938;44.794;-0.676;2023-04-24T12:47:38;3.55;;;1.40;;
21554;SDS011;10938;44.794;-0.676;2023-04-24T12:50:04;4.90;;;2.00;;
21554;SDS011;10938;44.794;-0.676;2023-04-24T12:52:29;1.73;;;1.15;;
21554;SDS011;10938;44.794;-0.676;2023-04-24T12:54:56;4.05;;;1.60;;
21554;SDS011;10938;44.794;-0.676;2023-04-24T12:57:21;3.42;;;1.50;;
21554;SDS011;10938;44.794;-0.676;2023-04-24T12:59:47;2.85;;;1.67;;
21554;SDS011;10938;44.794;-0.676;2023-04-24T13:02:15;6.47;;;1.70;;
21554;SDS011;10938;44.794;-0.676;2023-04-24T13:04:46;3.42;;;1.33;;
21554;SDS011;10938;44.794;-0.676;2023-04-24T13:07:12;4.95;;;1.67;;
21554;SDS011;10938;44.794;-0.676;2023-04-24T13:09:37;5.28;;;1.52;;
21554;SDS011;10938;44.794;-0.676;2023-04-24T13:12:03;4.80;;;1.60;;
21554;SDS011;10938;44.794;-0.676;2023-04-24T13:14:30;6.40;;;1.58;;
21554;SDS011;10938;44.794;-0.676;2023-04-24T13:16:55;2.67;;;1.50;;
21554;SDS011;10938;44.794;-0.676;2023-04-24T13:19:20;3.83;;;1.65;;
21554;SDS011;10938;44.794;-0.676;2023-04-24T13:21:46;2.63;;;1.27;;
21554;SDS011;10938;44.794;-0.676;2023-04-24T13:24:11;8.40;;;1.90;;
21554;SDS011;10938;44.794;-0.676;2023-04-24T13:26:38;4.43;;;1.60;;
21554;SDS011;10938;44.794;-0.676;2023-04-24T13:29:03;3.33;;;1.50;;
21554;SDS011;10938;44.794;-0.676;2023-04-24T13:31:28;4.18;;;1.48;;
21554;SDS011;10938;44.794;-0.676;2023-04-24T13:33:54;2.08;;;1.30;;
21554;SDS011;10938;44.794;-0.676;2023-04-24T13:36:19;3.67;;;1.20;;
21554;SDS011;10938;44.794;-0.676;2023-04-24T13:38:44;3.65;;;1.20;;
21554;SDS011;10938;44.794;-0.676;2023-04-24T13:41:10;2.73;;;1.07;;
21554;SDS011;10938;44.794;-0.676;2023-04-24T13:43:35;3.80;;;1.40;;
21554;SDS011;10938;44.794;-0.676;2023-04-24T13:46:01;2.65;;;1.20;;
21554;SDS011;10938;44.794;-0.676;2023-04-24T13:48:28;2.72;;;1.05;;
21554;SDS011;10938;44.794;-0.676;2023-04-24T13:50:53;3.88;;;1.30;;
21554;SDS011;10938;44.794;-0.676;2023-04-24T13:53:18;1.73;;;1.00;;
21554;SDS011;10938;44.794;-0.676;2023-04-24T13:55:44;2.85;;;1.00;;
21554;SDS011;10938;44.794;-0.676;2023-04-24T13:58:09;2.13;;;1.20;;
21554;SDS011;10938;44.794;-0.676;2023-04-24T14:00:35;1.75;;;0.93;;
21554;SDS011;10938;44.794;-0.676;2023-04-24T14:03:00;4.37;;;1.20;;
21554;SDS011;10938;44.794;-0.676;2023-04-24T14:05:26;2.08;;;1.00;;
21554;SDS011;10938;44.794;-0.676;2023-04-24T14:07:51;3.22;;;1.10;;
21554;SDS011;10938;44.794;-0.676;2023-04-24T14:10:16;1.50;;;0.90;;
21554;SDS011;10938;44.794;-0.676;2023-04-24T14:12:41;2.43;;;1.10;;
21554;SDS011;10938;44.794;-0.676;2023-04-24T14:15:07;3.77;;;1.00;;
21554;SDS011;10938;44.794;-0.676;2023-04-24T14:17:33;3.53;;;1.00;;
21554;SDS011;10938;44.794;-0.676;2023-04-24T14:19:59;3.83;;;1.33;;
21554;SDS011;10938;44.794;-0.676;2023-04-24T14:22:25;1.88;;;1.10;;
21554;SDS011;10938;44.794;-0.676;2023-04-24T14:24:50;1.23;;;0.90;;
21554;SDS011;10938;44.794;-0.676;2023-04-24T14:27:16;2.80;;;0.90;;
21554;SDS011;10938;44.794;-0.676;2023-04-24T14:29:44;2.00;;;0.97;;
21554;SDS011;10938;44.794;-0.676;2023-04-24T14:32:10;1.60;;;0.95;;
21554;SDS011;10938;44.794;-0.676;2023-04-24T14:34:35;1.17;;;0.80;;